Time;durP1;ratioP1;P1;durP2;ratioP2;P2;SDS_P1;SDS_P2;PMS_P1;PMS_P2;Temp;Humidity;BMP_temperature;BMP_pressure;BME280_temperature;BME280_humidity;BME280_pressure;Samples;Min_cycle;Max_cycle;Signal;HPM_P1;HPM_P2
2022/05/09 00:02:20;;;;;;;;;;;;;;;10.80;69.93;150368.87;1706944;84;20158;-60
2022/05/09 00:04:47;;;;;;;;;;;;;;;10.78;69.69;150363.69;1706701;84;20183;-62
2022/05/09 00:07:14;;;;;;;;;;;;;;;10.77;69.69;150361.09;1707209;84;21216;-59
2022/05/09 00:09:42;;;;;;;;;;;;;;;10.79;69.80;150366.28;1706677;84;20600;-59
2022/05/09 00:12:09;;;;;;;;;;;;;;;10.81;69.83;150371.47;1707342;84;20150;-60
2022/05/09 00:14:38;;;;;;;;;;;;;;;10.85;69.44;150380.56;1707221;84;20112;-60
2022/05/09 00:17:05;;;;;;;;;;;;;;;10.88;69.19;150389.63;1707089;84;20146;-58
2022/05/09 00:19:32;;;;;;;;;;;;;;;10.91;68.79;150394.80;1706577;84;21133;-61
2022/05/09 00:21:59;;;;;;;;;;;;;;;10.94;68.46;150402.58;1706590;84;20257;-64
2022/05/09 00:24:25;;;;;;;;;;;;;;;10.95;68.06;150405.22;1706184;84;20351;-62
2022/05/09 00:26:52;;;;;;;;;;;;;;;10.94;67.83;150403.91;1706872;84;20153;-61
2022/05/09 00:29:20;;;;;;;;;;;;;;;10.91;68.00;150396.13;1706772;84;20162;-62
2022/05/09 00:31:48;;;;;;;;;;;;;;;10.93;68.04;150400.00;1706452;84;21298;-58
2022/05/09 00:34:19;;;;;;;;;;;;;;;10.96;68.18;150407.81;1706714;84;20110;-59
2022/05/09 00:36:46;;;;;;;;;;;;;;;10.99;68.11;150415.59;1706997;84;20194;-59
2022/05/09 00:39:13;;;;;;;;;;;;;;;11.00;68.00;150418.20;1707242;84;20142;-59
2022/05/09 00:41:43;;;;;;;;;;;;;;;11.01;68.03;150420.78;1706936;84;20172;-59
2022/05/09 00:44:16;;;;;;;;;;;;;;;11.00;68.01;150418.20;1707320;84;21240;-58
2022/05/09 00:46:44;;;;;;;;;;;;;;;11.00;68.19;150419.47;1706817;84;21121;-58
2022/05/09 00:49:26;;;;;;;;;;;;;;;11.01;68.12;150422.06;1707379;84;20112;-59
2022/05/09 00:52:08;;;;;;;;;;;;;;;11.00;68.19;150419.47;1706962;84;20144;-59
2022/05/09 00:54:40;;;;;;;;;;;;;;;10.97;68.31;150410.42;1707264;84;20133;-58
2022/05/09 00:57:14;;;;;;;;;;;;;;;10.99;68.22;150416.87;1724501;82;21232;-60
2022/05/09 00:59:43;;;;;;;;;;;;;;;10.98;68.17;150413.00;1714372;83;20500;-60
2022/05/09 01:02:10;;;;;;;;;;;;;;;10.95;68.11;150405.22;1714920;83;20150;-59
2022/05/09 01:04:44;;;;;;;;;;;;;;;10.91;68.11;150394.80;1714387;83;20524;-59
2022/05/09 01:07:11;;;;;;;;;;;;;;;10.87;68.13;150387.02;1714952;83;20101;-60
2022/05/09 01:09:38;;;;;;;;;;;;;;;10.83;68.12;150376.66;1714327;83;21236;-60
2022/05/09 01:12:05;;;;;;;;;;;;;;;10.80;68.23;150368.87;1714860;83;20216;-60
2022/05/09 01:14:34;;;;;;;;;;;;;;;10.80;68.08;150368.87;1714295;83;20441;-61
2022/05/09 01:17:01;;;;;;;;;;;;;;;10.78;67.99;150363.69;1714753;83;20464;-61
2022/05/09 01:19:35;;;;;;;;;;;;;;;10.73;67.90;150350.72;1714461;83;20464;-60
2022/05/09 01:22:02;;;;;;;;;;;;;;;10.70;67.79;150344.20;1714857;83;21143;-59
2022/05/09 01:24:29;;;;;;;;;;;;;;;10.70;67.71;150344.20;1714882;83;20180;-58
2022/05/09 01:26:56;;;;;;;;;;;;;;;10.69;67.32;150341.61;1714625;83;20608;-60
2022/05/09 01:29:29;;;;;;;;;;;;;;;10.71;67.02;150345.48;1714534;83;20176;-59
2022/05/09 01:31:59;;;;;;;;;;;;;;;10.71;66.70;150345.48;1714503;83;20508;-60
2022/05/09 01:34:26;;;;;;;;;;;;;;;10.71;66.54;150345.48;1714654;83;21148;-60
2022/05/09 01:36:56;;;;;;;;;;;;;;;10.66;66.43;150333.83;1714642;83;20465;-60
2022/05/09 01:39:24;;;;;;;;;;;;;;;10.62;66.52;150322.14;1715170;83;20125;-60
2022/05/09 01:41:53;;;;;;;;;;;;;;;10.58;66.84;150314.36;1714761;83;20204;-61
2022/05/09 01:44:21;;;;;;;;;;;;;;;10.55;67.16;150306.58;1714740;83;20121;-59
2022/05/09 01:49:34;;;;;;;;;;;;;;;10.43;68.35;150276.73;1714001;83;20205;-60
2022/05/09 01:52:04;;;;;;;;;;;;;;;10.42;68.66;150272.83;1714539;83;20200;-60
2022/05/09 01:54:31;;;;;;;;;;;;;;;10.36;68.71;150258.50;1714855;83;20155;-58
2022/05/09 01:56:57;;;;;;;;;;;;;;;10.27;68.84;150236.44;1714232;83;20209;-60
2022/05/09 01:59:24;;;;;;;;;;;;;;;10.19;69.10;150215.69;1716015;82;21100;-60
2022/05/09 02:01:56;;;;;;;;;;;;;;;10.11;69.41;150194.95;1717409;83;20109;-59
2022/05/09 02:04:23;;;;;;;;;;;;;;;10.02;69.97;150172.89;1716724;83;20402;-59
2022/05/09 02:06:50;;;;;;;;;;;;;;;9.93;70.75;150150.84;1717102;83;20476;-60
2022/05/09 02:09:17;;;;;;;;;;;;;;;9.93;71.17;150149.52;1717144;83;20153;-60
2022/05/09 02:11:44;;;;;;;;;;;;;;;9.92;71.52;150146.92;1716838;83;21220;-59
2022/05/09 02:14:11;;;;;;;;;;;;;;;9.88;71.77;150137.88;1717150;83;20223;-59
2022/05/09 02:16:38;;;;;;;;;;;;;;;9.86;71.96;150132.70;1716821;83;20176;-59
2022/05/09 02:19:06;;;;;;;;;;;;;;;9.84;71.92;150127.52;1717256;83;20216;-60
2022/05/09 02:21:34;;;;;;;;;;;;;;;9.82;71.66;150122.28;1717017;83;20183;-60
2022/05/09 02:24:01;;;;;;;;;;;;;;;9.76;71.38;150108.06;1717290;82;21206;-59
2022/05/09 02:26:28;;;;;;;;;;;;;;;9.70;70.90;150093.78;1716960;83;20489;-60
2022/05/09 02:28:55;;;;;;;;;;;;;;;9.62;70.51;150073.05;1717281;83;20180;-60
2022/05/09 02:31:23;;;;;;;;;;;;;;;9.58;70.09;150063.95;1717312;83;20410;-60
2022/05/09 02:33:50;;;;;;;;;;;;;;;9.60;69.49;150067.81;1717055;83;20201;-60
2022/05/09 02:36:17;;;;;;;;;;;;;;;9.64;68.95;150076.91;1717134;83;21302;-59
2022/05/09 02:38:44;;;;;;;;;;;;;;;9.67;68.22;150086.00;1716780;82;20531;-58
2022/05/09 02:41:11;;;;;;;;;;;;;;;9.73;67.77;150101.55;1717536;83;20173;-58
2022/05/09 02:43:37;;;;;;;;;;;;;;;9.77;66.89;150109.33;1716965;83;20685;-58
2022/05/09 02:46:04;;;;;;;;;;;;;;;9.80;66.31;150118.42;1717311;83;20212;-59
2022/05/09 02:48:32;;;;;;;;;;;;;;;9.82;65.72;150122.28;1716976;82;21127;-59
2022/05/09 02:50:59;;;;;;;;;;;;;;;9.86;65.10;150132.70;1717314;83;20639;-59
2022/05/09 02:53:26;;;;;;;;;;;;;;;9.86;64.56;150133.97;1717154;82;20100;-59
2022/05/09 02:55:53;;;;;;;;;;;;;;;9.88;63.95;150137.88;1717100;83;20443;-59
2022/05/09 02:58:20;;;;;;;;;;;;;;;9.90;63.32;150143.06;1717052;82;20140;-59
2022/05/09 03:00:47;;;;;;;;;;;;;;;9.90;62.54;150143.06;1714577;83;21141;-59
2022/05/09 03:05:59;;;;;;;;;;;;;;;9.92;62.08;150148.25;1714743;83;20169;-60
2022/05/09 03:08:27;;;;;;;;;;;;;;;10.00;61.78;150168.98;1714370;83;20153;-61
2022/05/09 03:10:53;;;;;;;;;;;;;;;10.04;61.50;150179.34;1714698;83;20221;-57
2022/05/09 03:13:20;;;;;;;;;;;;;;;10.08;61.26;150187.17;1714787;83;21814;-59
2022/05/09 03:15:48;;;;;;;;;;;;;;;10.13;61.02;150200.13;1714344;83;20149;-58
2022/05/09 03:18:17;;;;;;;;;;;;;;;10.15;60.90;150205.31;1714899;83;20185;-59
2022/05/09 03:20:45;;;;;;;;;;;;;;;10.21;60.60;150220.88;1714807;83;20193;-59
2022/05/09 03:23:12;;;;;;;;;;;;;;;10.26;60.45;150232.56;1715300;83;20390;-59
2022/05/09 03:25:39;;;;;;;;;;;;;;;10.34;60.31;150252.03;1714447;83;21239;-58
2022/05/09 03:28:12;;;;;;;;;;;;;;;10.42;60.02;150274.16;1714748;83;20200;-59
2022/05/09 03:30:40;;;;;;;;;;;;;;;10.51;59.42;150296.20;1714592;83;20177;-59
2022/05/09 03:33:07;;;;;;;;;;;;;;;10.59;59.00;150316.95;1715153;83;20544;-58
2022/05/09 03:35:35;;;;;;;;;;;;;;;10.67;58.66;150336.42;1714554;83;20184;-59
2022/05/09 03:38:02;;;;;;;;;;;;;;;10.74;58.38;150354.58;1714722;83;21237;-58
2022/05/09 03:40:29;;;;;;;;;;;;;;;10.83;58.35;150376.66;1714786;83;20225;-58
2022/05/09 03:42:59;;;;;;;;;;;;;;;10.97;58.02;150410.42;1714589;83;20180;-58
2022/05/09 03:45:26;;;;;;;;;;;;;;;11.09;57.51;150440.28;1714664;83;20606;-59
2022/05/09 03:47:53;;;;;;;;;;;;;;;11.17;56.86;150462.34;1714579;83;20140;-58
2022/05/09 03:50:19;;;;;;;;;;;;;;;11.26;56.62;150483.09;1715065;83;21137;-59
2022/05/09 03:52:47;;;;;;;;;;;;;;;11.35;56.21;150505.17;1714353;83;20233;-59
2022/05/09 03:55:13;;;;;;;;;;;;;;;11.42;55.89;150524.66;1714722;83;20200;-59
2022/05/09 03:57:45;;;;;;;;;;;;;;;11.50;55.45;150542.81;1714406;83;20200;-59
2022/05/09 04:00:14;;;;;;;;;;;;;;;11.56;55.30;150558.39;1716490;81;20169;-59
2022/05/09 04:02:45;;;;;;;;;;;;;;;11.64;55.07;150579.20;1717138;83;21883;-60
2022/05/09 04:05:16;;;;;;;;;;;;;;;11.71;54.94;150597.38;1716976;83;20165;-60
2022/05/09 04:07:41;;;;;;;;;;;;;;;11.89;54.77;150641.53;1716786;82;20188;-61
2022/05/09 04:10:09;;;;;;;;;;;;;;;12.01;54.21;150672.73;1717620;83;20209;-61
2022/05/09 04:12:37;;;;;;;;;;;;;;;12.15;53.89;150706.53;1717350;83;20156;-58
2022/05/09 04:17:50;;;;;;;;;;;;;;;12.48;53.52;150788.39;1716976;83;20172;-61
2022/05/09 04:20:17;;;;;;;;;;;;;;;12.68;53.05;150840.37;1717400;83;20414;-60
2022/05/09 04:22:44;;;;;;;;;;;;;;;12.83;52.63;150878.06;1716940;83;20169;-61
2022/05/09 04:25:12;;;;;;;;;;;;;;;12.91;52.38;150897.56;1717647;83;20402;-60
2022/05/09 04:27:40;;;;;;;;;;;;;;;13.01;52.19;150922.25;1716952;83;20684;-61
2022/05/09 04:30:09;;;;;;;;;;;;;;;13.10;51.99;150945.64;1717173;83;20182;-60
2022/05/09 04:32:36;;;;;;;;;;;;;;;13.22;51.78;150974.27;1717530;83;20167;-59
2022/05/09 04:35:03;;;;;;;;;;;;;;;13.33;51.59;151004.17;1717012;83;20450;-59
2022/05/09 04:37:32;;;;;;;;;;;;;;;13.45;51.30;151034.13;1716768;82;20180;-60
2022/05/09 04:39:59;;;;;;;;;;;;;;;13.53;51.26;151052.31;1716987;83;21316;-60
2022/05/09 04:42:25;;;;;;;;;;;;;;;13.62;51.02;151075.75;1716977;82;20181;-60
2022/05/09 04:44:52;;;;;;;;;;;;;;;13.68;50.69;151091.34;1716193;83;20706;-60
2022/05/09 04:47:19;;;;;;;;;;;;;;;13.74;50.35;151106.94;1716527;83;20149;-60
2022/05/09 04:49:46;;;;;;;;;;;;;;;13.82;50.10;151125.17;1716166;82;20189;-60
2022/05/09 04:52:13;;;;;;;;;;;;;;;13.90;50.17;151145.97;1717037;82;21177;-60
2022/05/09 04:54:39;;;;;;;;;;;;;;;14.03;50.05;151179.77;1717219;83;20200;-60
2022/05/09 04:57:06;;;;;;;;;;;;;;;14.18;49.82;151216.20;1717042;82;20208;-61
2022/05/09 04:59:33;;;;;;;;;;;;;;;14.36;49.56;151260.45;1716871;82;20188;-61
2022/05/09 05:02:00;;;;;;;;;;;;;;;14.54;49.09;151307.30;1717095;83;20164;-61
2022/05/09 05:04:27;;;;;;;;;;;;;;;14.67;48.94;151338.50;1717440;83;21126;-61
2022/05/09 05:06:54;;;;;;;;;;;;;;;14.79;48.81;151368.50;1716863;83;20221;-60
2022/05/09 05:09:21;;;;;;;;;;;;;;;14.94;48.54;151406.28;1717153;83;20162;-59
2022/05/09 05:11:48;;;;;;;;;;;;;;;15.09;48.23;151445.30;1716757;83;20137;-61
2022/05/09 05:14:15;;;;;;;;;;;;;;;15.23;47.94;151479.16;1717392;83;20200;-60
2022/05/09 05:17:00;;;;;;;;;;;;;;;15.34;47.62;151507.78;1716825;83;21262;-59
2022/05/09 05:19:31;;;;;;;;;;;;;;;15.43;47.26;151531.25;1717087;83;20418;-61
2022/05/09 05:21:59;;;;;;;;;;;;;;;15.55;47.15;151561.20;1717025;83;20172;-61
2022/05/09 05:24:27;;;;;;;;;;;;;;;15.72;46.88;151604.16;1717356;83;20105;-61
2022/05/09 05:26:55;;;;;;;;;;;;;;;15.88;46.49;151643.25;1716858;82;20188;-59
2022/05/09 05:29:22;;;;;;;;;;;;;;;16.00;46.43;151674.53;1716974;83;21240;-61
2022/05/09 05:31:50;;;;;;;;;;;;;;;16.18;46.13;151720.16;1716984;82;20517;-59
2022/05/09 05:34:16;;;;;;;;;;;;;;;16.36;45.93;151763.14;1717091;83;20394;-60
2022/05/09 05:36:45;;;;;;;;;;;;;;;16.57;45.84;151817.88;1716037;82;20492;-60
2022/05/09 05:39:15;;;;;;;;;;;;;;;16.81;45.35;151876.53;1716924;82;20154;-59
2022/05/09 05:41:44;;;;;;;;;;;;;;;17.04;44.70;151935.22;1716818;83;21264;-60
2022/05/09 05:44:14;;;;;;;;;;;;;;;17.26;44.27;151989.97;1717156;83;20186;-60
2022/05/09 05:46:42;;;;;;;;;;;;;;;17.45;44.00;152038.19;1717354;83;20132;-58
2022/05/09 05:49:09;;;;;;;;;;;;;;;17.62;43.58;152081.25;1716943;83;20614;-58
2022/05/09 05:51:36;;;;;;;;;;;;;;;17.75;43.32;152113.84;1716601;83;20267;-57
2022/05/09 05:54:04;;;;;;;;;;;;;;;17.88;43.19;152147.73;1716942;83;21137;-58
2022/05/09 05:56:32;;;;;;;;;;;;;;;18.00;42.53;152177.73;1716598;83;20133;-59
2022/05/09 05:58:59;;;;;;;;;;;;;;;18.13;41.87;152209.11;1716954;83;20184;-58
2022/05/09 06:01:25;;;;;;;;;;;;;;;18.26;41.50;152243.03;1716556;82;20177;-61
2022/05/09 06:03:52;;;;;;;;;;;;;;;18.40;41.33;152278.27;1716463;83;20201;-62
2022/05/09 06:06:19;;;;;;;;;;;;;;;18.56;40.75;152318.70;1717158;83;21137;-60
2022/05/09 06:08:46;;;;;;;;;;;;;;;18.74;40.42;152363.08;1716202;82;20204;-59
2022/05/09 06:11:13;;;;;;;;;;;;;;;18.93;40.00;152410.06;1716777;83;20149;-59
2022/05/09 06:13:41;;;;;;;;;;;;;;;19.14;39.34;152464.94;1716089;83;20176;-60
2022/05/09 06:16:08;;;;;;;;;;;;;;;19.31;38.95;152506.67;1717030;83;20521;-61
2022/05/09 06:18:35;;;;;;;;;;;;;;;19.45;38.22;152543.25;1716290;83;21217;-59
2022/05/09 06:21:03;;;;;;;;;;;;;;;19.62;37.37;152585.03;1716636;83;20457;-61
2022/05/09 06:23:30;;;;;;;;;;;;;;;19.81;36.70;152632.06;1716577;82;20085;-59
2022/05/09 06:25:57;;;;;;;;;;;;;;;19.99;36.21;152679.08;1716488;82;20255;-62
2022/05/09 06:28:24;;;;;;;;;;;;;;;20.16;35.63;152720.88;1716765;83;20166;-58
2022/05/09 06:30:51;;;;;;;;;;;;;;;20.27;35.55;152749.64;1716618;82;21224;-58
2022/05/09 06:33:23;;;;;;;;;;;;;;;20.40;35.40;152780.97;1716974;83;20125;-59
2022/05/09 06:35:50;;;;;;;;;;;;;;;20.53;34.92;152814.95;1716257;82;20204;-61
2022/05/09 06:38:18;;;;;;;;;;;;;;;20.70;34.40;152856.78;1716908;82;20106;-60
2022/05/09 06:40:46;;;;;;;;;;;;;;;20.86;33.36;152897.31;1689885;83;20181;-61
2022/05/09 06:43:13;;;;;;;;;;;;;;;21.00;32.85;152932.59;1717182;83;21893;-60
2022/05/09 06:45:41;;;;;;;;;;;;;;;21.14;32.29;152969.20;1717205;82;20469;-60
2022/05/09 06:48:09;;;;;;;;;;;;;;;21.21;32.17;152984.88;1716873;83;20164;-61
2022/05/09 06:50:36;;;;;;;;;;;;;;;21.27;32.25;153000.55;1717235;82;20697;-58
2022/05/09 06:53:05;;;;;;;;;;;;;;;21.28;32.30;153003.16;1717468;83;20180;-59
2022/05/09 06:55:32;;;;;;;;;;;;;;;21.31;32.32;153011.00;1717243;83;21240;-61
2022/05/09 06:57:58;;;;;;;;;;;;;;;21.38;31.98;153028.00;1717065;82;20216;-58
2022/05/09 07:00:26;;;;;;;;;;;;;;;21.44;31.94;153043.67;1717182;82;20173;-61
2022/05/09 07:02:53;;;;;;;;;;;;;;;21.53;31.91;153065.91;1717246;83;20207;-61
2022/05/09 07:05:20;;;;;;;;;;;;;;;21.64;31.93;153093.34;1717630;83;20200;-60
2022/05/09 07:07:48;;;;;;;;;;;;;;;21.77;31.60;153126.08;1717657;82;21128;-59
2022/05/09 07:10:14;;;;;;;;;;;;;;;21.86;31.45;153149.66;1717476;83;20137;-58
2022/05/09 07:12:47;;;;;;;;;;;;;;;21.95;31.09;153173.16;1716988;83;20181;-59
2022/05/09 07:15:16;;;;;;;;;;;;;;;21.94;30.73;153169.27;1717237;83;20145;-60
2022/05/09 07:17:42;;;;;;;;;;;;;;;21.91;30.83;153162.72;1717694;82;20203;-61
2022/05/09 07:20:10;;;;;;;;;;;;;;;21.92;30.68;153165.31;1717345;83;21150;-60
2022/05/09 07:22:38;;;;;;;;;;;;;;;21.97;30.44;153178.39;1717742;83;20160;-59
2022/05/09 07:25:05;;;;;;;;;;;;;;;22.01;30.47;153188.89;1717135;83;20156;-59
2022/05/09 07:27:33;;;;;;;;;;;;;;;22.06;30.35;153199.34;1716868;83;20424;-60
2022/05/09 07:30:00;;;;;;;;;;;;;;;22.09;30.23;153207.19;1717247;83;20176;-60
2022/05/09 07:32:26;;;;;;;;;;;;;;;22.12;30.18;153215.02;1717060;82;21092;-60
2022/05/09 07:34:53;;;;;;;;;;;;;;;22.19;30.28;153233.31;1716508;83;20284;-59
2022/05/09 07:37:21;;;;;;;;;;;;;;;22.25;30.09;153249.03;1717102;83;20129;-58
2022/05/09 07:39:48;;;;;;;;;;;;;;;22.32;29.73;153267.33;1716560;83;20198;-58
2022/05/09 07:42:15;;;;;;;;;;;;;;;22.37;29.68;153279.12;1716984;83;20497;-58
2022/05/09 07:44:41;;;;;;;;;;;;;;;22.47;29.70;153304.03;1716566;83;21247;-59
2022/05/09 07:47:09;;;;;;;;;;;;;;;22.55;29.53;153324.94;1716733;83;20160;-59
2022/05/09 07:49:36;;;;;;;;;;;;;;;22.65;29.53;153349.80;1717197;82;20129;-60
2022/05/09 07:52:05;;;;;;;;;;;;;;;22.79;29.36;153383.83;1716820;83;20721;-61
2022/05/09 07:54:32;;;;;;;;;;;;;;;22.87;29.06;153406.02;1716637;83;20141;-62
2022/05/09 07:56:59;;;;;;;;;;;;;;;22.89;28.96;153411.30;1716687;83;21220;-61
2022/05/09 07:59:26;;;;;;;;;;;;;;;22.88;28.51;153408.69;1716551;83;20125;-61
2022/05/09 08:01:53;;;;;;;;;;;;;;;22.88;28.42;153407.36;1714137;83;20220;-61
2022/05/09 08:04:20;;;;;;;;;;;;;;;22.88;28.20;153407.36;1714195;83;20470;-61
2022/05/09 08:06:48;;;;;;;;;;;;;;;22.89;28.11;153411.30;1713781;83;20200;-61
2022/05/09 08:09:15;;;;;;;;;;;;;;;22.88;28.12;153407.36;1714377;83;21235;-62
2022/05/09 08:11:44;;;;;;;;;;;;;;;22.86;28.22;153403.41;1714247;83;20149;-61
2022/05/09 08:14:11;;;;;;;;;;;;;;;22.90;28.16;153412.59;1714240;83;20172;-61
2022/05/09 08:16:39;;;;;;;;;;;;;;;22.95;28.22;153424.38;1714018;83;20981;-60
2022/05/09 08:19:11;;;;;;;;;;;;;;;22.96;28.10;153426.98;1714515;83;35551;-61
2022/05/09 08:21:38;;;;;;;;;;;;;;;22.97;28.21;153430.87;1713801;83;21270;-61
2022/05/09 08:24:05;;;;;;;;;;;;;;;23.00;28.22;153437.44;1713965;83;20220;-61
2022/05/09 08:26:32;;;;;;;;;;;;;;;23.07;28.13;153454.47;1714762;83;20073;-62
2022/05/09 08:28:59;;;;;;;;;;;;;;;23.12;28.02;153467.53;1713862;83;20220;-60
2022/05/09 08:31:26;;;;;;;;;;;;;;;23.15;27.89;153475.39;1714220;83;20090;-60
2022/05/09 08:33:52;;;;;;;;;;;;;;;23.16;27.92;153479.33;1713926;83;21270;-62
2022/05/09 08:39:06;;;;;;;;;;;;;;;23.28;27.61;153508.14;1714354;83;20188;-61
2022/05/09 08:41:54;;;;;;;;;;;;;;;23.34;27.40;153523.88;1714755;83;20402;-61
2022/05/09 08:44:30;;;;;;;;;;;;;;;23.39;27.35;153536.97;1714776;83;20121;-61
2022/05/09 08:47:15;;;;;;;;;;;;;;;23.44;27.28;153550.03;1714349;83;21231;-59
2022/05/09 08:49:49;;;;;;;;;;;;;;;23.51;26.89;153565.72;1712512;83;20180;-61
2022/05/09 08:52:22;;;;;;;;;;;;;;;23.54;26.57;153573.56;1714819;83;20121;-61
2022/05/09 08:54:50;;;;;;;;;;;;;;;23.56;26.53;153578.86;1714119;83;20477;-61
2022/05/09 08:57:22;;;;;;;;;;;;;;;23.54;26.70;153574.91;1714826;83;20105;-59
2022/05/09 09:00:04;;;;;;;;;;;;;;;23.59;26.66;153586.70;1714885;83;21172;-58
2022/05/09 09:02:56;;;;;;;;;;;;;;;23.60;26.64;153590.59;1714182;82;20150;-59
2022/05/09 09:05:24;;;;;;;;;;;;;;;23.57;26.68;153581.47;1715236;83;20398;-61
2022/05/09 09:08:16;;;;;;;;;;;;;;;23.51;26.92;153567.06;1714602;83;20208;-59
2022/05/09 09:11:05;;;;;;;;;;;;;;;23.49;26.58;153560.50;1714322;83;20268;-58
2022/05/09 09:13:45;;;;;;;;;;;;;;;23.49;26.64;153561.83;1709425;83;21151;-59
2022/05/09 09:16:35;;;;;;;;;;;;;;;23.53;26.64;153572.28;1714911;83;20156;-59
2022/05/09 09:19:41;;;;;;;;;;;;;;;23.60;26.56;153589.31;1713770;83;20295;-60
2022/05/09 09:22:14;;;;;;;;;;;;;;;23.63;26.44;153597.16;1714817;83;20196;-59
2022/05/09 09:25:05;;;;;;;;;;;;;;;23.65;26.11;153602.39;1712947;83;20184;-59
2022/05/09 09:27:40;;;;;;;;;;;;;;;23.65;25.54;153602.39;1714546;83;21802;-58
2022/05/09 09:30:12;;;;;;;;;;;;;;;23.69;24.71;153611.58;1714424;83;20172;-58
2022/05/09 09:32:41;;;;;;;;;;;;;;;23.66;24.67;153605.02;1714704;83;20456;-58
2022/05/09 09:35:21;;;;;;;;;;;;;;;23.68;24.73;153610.25;1714595;83;20136;-59
2022/05/09 09:37:54;;;;;;;;;;;;;;;23.67;24.74;153606.34;1714824;83;20160;-58
2022/05/09 09:40:21;;;;;;;;;;;;;;;23.70;24.74;153615.47;1714721;83;21243;-59
2022/05/09 09:42:53;;;;;;;;;;;;;;;23.74;24.50;153624.66;1714213;83;20471;-59
2022/05/09 09:45:24;;;;;;;;;;;;;;;23.74;24.21;153624.66;1714936;83;20382;-59
2022/05/09 09:48:07;;;;;;;;;;;;;;;23.70;24.07;153615.47;1714381;83;20793;-58
2022/05/09 09:50:34;;;;;;;;;;;;;;;23.67;24.02;153606.34;1715013;83;20406;-58
2022/05/09 09:53:01;;;;;;;;;;;;;;;23.66;23.81;153605.02;1714837;83;21191;-59
2022/05/09 09:55:33;;;;;;;;;;;;;;;23.64;23.90;153598.44;1714720;83;20402;-58
2022/05/09 09:58:20;;;;;;;;;;;;;;;23.65;24.15;153601.06;1714809;83;20144;-58
2022/05/09 10:00:47;;;;;;;;;;;;;;;23.62;24.07;153594.55;1714484;82;20181;-58
2022/05/09 10:03:22;;;;;;;;;;;;;;;23.62;24.21;153594.55;1717341;83;20204;-58
2022/05/09 10:05:50;;;;;;;;;;;;;;;23.62;24.34;153594.55;1717338;82;21236;-59
2022/05/09 10:08:19;;;;;;;;;;;;;;;23.62;24.51;153594.55;1717571;83;20390;-59
2022/05/09 10:10:55;;;;;;;;;;;;;;;23.63;24.49;153595.83;1717477;83;20158;-58
2022/05/09 10:13:23;;;;;;;;;;;;;;;23.63;23.96;153595.83;1717479;83;20085;-58
2022/05/09 10:16:04;;;;;;;;;;;;;;;23.61;23.59;153591.94;1717234;83;20156;-58
2022/05/09 10:18:32;;;;;;;;;;;;;;;23.61;25.82;153593.22;1717175;83;21226;-59
2022/05/09 10:21:12;;;;;;;;;;;;;;;23.61;26.36;153591.94;1717573;83;20973;-59
2022/05/09 10:26:33;;;;;;;;;;;;;;;23.52;31.37;153568.34;1716806;83;20102;-60
2022/05/09 10:29:03;;;;;;;;;;;;;;;23.45;32.41;153552.66;1716782;83;20207;-58
2022/05/09 10:31:32;;;;;;;;;;;;;;;23.39;33.01;153536.97;1716595;83;21241;-60
2022/05/09 10:34:18;;;;;;;;;;;;;;;23.31;33.32;153516.00;1716771;83;20857;-59
2022/05/09 10:37:14;;;;;;;;;;;;;;;23.21;33.69;153489.78;1716645;83;20461;-59
2022/05/09 10:39:51;;;;;;;;;;;;;;;23.08;33.72;153457.08;1717236;83;20143;-60
2022/05/09 10:42:21;;;;;;;;;;;;;;;22.94;33.85;153423.05;1714222;83;20117;-60
2022/05/09 10:45:02;;;;;;;;;;;;;;;22.86;34.25;153403.41;1716653;83;21182;-59
2022/05/09 10:47:32;;;;;;;;;;;;;;;22.77;35.02;153379.88;1717452;83;20405;-59
2022/05/09 10:50:12;;;;;;;;;;;;;;;22.60;35.27;153338.00;1716570;82;20184;-59
2022/05/09 10:52:48;;;;;;;;;;;;;;;22.45;35.29;153300.03;1716630;83;20546;-60
2022/05/09 10:55:23;;;;;;;;;;;;;;;22.31;35.25;153264.72;1717148;83;20437;-59
2022/05/09 10:58:11;;;;;;;;;;;;;;;22.22;35.89;153239.87;1717482;83;21200;-60
2022/05/09 11:00:44;;;;;;;;;;;;;;;22.13;37.22;153217.63;1717039;83;20121;-60
2022/05/09 11:03:21;;;;;;;;;;;;;;;22.00;38.09;153186.28;1714832;82;20600;-60
2022/05/09 11:06:22;;;;;;;;;;;;;;;21.87;38.70;153153.53;1714514;83;20176;-60
2022/05/09 11:09:15;;;;;;;;;;;;;;;21.74;38.54;153120.86;1714365;83;20180;-61
2022/05/09 11:12:08;;;;;;;;;;;;;;;21.63;38.53;153090.73;1714482;83;21228;-59
2022/05/09 11:14:51;;;;;;;;;;;;;;;21.52;39.13;153063.28;1714341;83;20173;-58
2022/05/09 11:17:40;;;;;;;;;;;;;;;21.34;40.45;153018.88;1714463;83;20181;-59
2022/05/09 11:20:10;;;;;;;;;;;;;;;21.24;40.78;152992.72;1714818;83;20499;-60
2022/05/09 11:23:06;;;;;;;;;;;;;;;21.18;40.93;152979.66;1679072;83;20193;-60
2022/05/09 11:25:43;;;;;;;;;;;;;;;21.16;40.07;152974.42;1714622;83;21151;-60
2022/05/09 11:28:13;;;;;;;;;;;;;;;21.15;39.50;152971.81;1714708;83;20173;-60
2022/05/09 11:30:45;;;;;;;;;;;;;;;21.10;39.81;152958.70;1714458;83;20229;-58
2022/05/09 11:33:44;;;;;;;;;;;;;;;21.01;41.00;152935.20;1714835;83;20144;-58
2022/05/09 11:36:15;;;;;;;;;;;;;;;20.97;42.03;152924.75;1714655;83;20183;-58
2022/05/09 11:39:20;;;;;;;;;;;;;;;20.94;42.20;152916.92;1714538;83;21142;-59
2022/05/09 11:43:27;;;;;;;;;;;;;;;20.94;41.27;152918.20;1714330;83;20208;-59
2022/05/09 11:44:35;;;;;;;;;;;;;;;20.94;40.30;152916.92;1710119;83;20145;-61
2022/05/09 11:47:05;;;;;;;;;;;;;;;20.97;40.32;152926.03;1714490;83;20496;-59
2022/05/09 11:50:06;;;;;;;;;;;;;;;20.97;40.04;152926.03;1714788;83;20145;-58
2022/05/09 11:52:42;;;;;;;;;;;;;;;20.96;39.74;152923.44;1714602;83;21247;-59
2022/05/09 11:55:12;;;;;;;;;;;;;;;20.97;39.43;152924.75;1714445;83;20188;-60
2022/05/09 11:57:41;;;;;;;;;;;;;;;20.97;39.51;152926.03;1714260;83;20137;-60
2022/05/09 12:00:12;;;;;;;;;;;;;;;20.97;39.35;152924.75;1715097;83;20148;-60
2022/05/09 12:02:50;;;;;;;;;;;;;;;20.96;38.72;152922.16;1715831;83;20213;-59
2022/05/09 12:05:29;;;;;;;;;;;;;;;20.99;37.78;152929.98;1717361;83;22646;-60
2022/05/09 12:08:05;;;;;;;;;;;;;;;20.98;37.63;152928.66;1716902;83;20362;-58
2022/05/09 12:10:35;;;;;;;;;;;;;;;20.95;37.38;152920.81;1717375;83;20141;-58
2022/05/09 12:13:05;;;;;;;;;;;;;;;20.94;38.49;152916.92;1692673;83;20145;-61
2022/05/09 12:15:35;;;;;;;;;;;;;;;20.91;38.99;152910.38;1716400;82;20407;-61
2022/05/09 12:18:09;;;;;;;;;;;;;;;20.87;38.66;152901.22;1717114;83;21228;-61
2022/05/09 12:20:45;;;;;;;;;;;;;;;20.80;38.29;152882.94;1716849;83;20141;-59
2022/05/09 12:23:15;;;;;;;;;;;;;;;20.73;38.26;152864.61;1717231;83;20289;-59
2022/05/09 12:25:50;;;;;;;;;;;;;;;20.70;38.20;152856.78;1713581;83;20216;-61
2022/05/09 12:28:29;;;;;;;;;;;;;;;20.68;38.18;152851.55;1717395;83;20231;-59
2022/05/09 12:31:04;;;;;;;;;;;;;;;20.64;37.78;152841.06;1717181;82;20757;-60
2022/05/09 12:33:49;;;;;;;;;;;;;;;20.64;37.81;152841.06;1717019;83;20220;-60
2022/05/09 12:36:19;;;;;;;;;;;;;;;20.65;37.34;152843.67;1717227;83;20204;-60
2022/05/09 12:38:50;;;;;;;;;;;;;;;20.70;36.87;152858.06;1745636;80;20166;-58
2022/05/09 12:41:19;;;;;;;;;;;;;;;20.71;35.56;152859.38;1743437;82;20209;-61
2022/05/09 12:43:56;;;;;;;;;;;;;;;20.69;34.87;152854.16;1743349;82;22661;-59
2022/05/09 12:46:34;;;;;;;;;;;;;;;20.68;34.72;152851.55;1743284;82;20118;-60
2022/05/09 12:49:02;;;;;;;;;;;;;;;20.68;34.43;152851.55;1743058;82;20182;-59
2022/05/09 12:51:31;;;;;;;;;;;;;;;20.70;34.45;152856.78;1743819;82;20356;-60
2022/05/09 12:53:58;;;;;;;;;;;;;;;20.73;34.89;152864.61;1742894;82;20126;-60
2022/05/09 12:56:27;;;;;;;;;;;;;;;20.78;34.71;152877.66;1743320;82;22021;-60
2022/05/09 12:59:08;;;;;;;;;;;;;;;20.79;34.45;152880.28;1743102;82;20606;-59
2022/05/09 13:01:36;;;;;;;;;;;;;;;20.79;34.04;152879.00;1743345;82;20388;-59
2022/05/09 13:04:05;;;;;;;;;;;;;;;20.74;34.04;152868.50;1745289;82;20165;-60
2022/05/09 13:06:38;;;;;;;;;;;;;;;20.76;34.22;152873.72;1745261;82;20147;-59
2022/05/09 13:09:15;;;;;;;;;;;;;;;20.76;34.46;152872.44;1745490;81;21772;-58
2022/05/09 13:11:42;;;;;;;;;;;;;;;20.74;34.71;152867.22;1745120;82;20240;-59